Time;durP1;ratioP1;P1;durP2;ratioP2;P2;SDS_P1;SDS_P2;PMS_P1;PMS_P2;Temp;Humidity;BMP_temperature;BMP_pressure;BME280_temperature;BME280_humidity;BME280_pressure;Samples;Min_cycle;Max_cycle;Signal;HPM_P1;HPM_P2
2022/05/29 00:00:49;;;;;;;3.53;2.22;;;;;;;14.55;44.81;98849.50;5085477;28;20063;-73
2022/05/29 00:03:17;;;;;;;3.45;1.90;;;;;;;14.79;44.99;98898.28;5085778;28;20052;-74
2022/05/29 00:05:45;;;;;;;4.88;2.35;;;;;;;14.75;44.67;98894.16;5085331;28;20098;-73
2022/05/29 00:08:15;;;;;;;3.47;1.95;;;;;;;14.69;45.08;98886.66;5085354;28;20129;-73
2022/05/29 00:10:43;;;;;;;3.20;2.00;;;;;;;14.70;44.88;98886.53;5085347;28;20094;-74
2022/05/29 00:13:12;;;;;;;4.50;2.05;;;;;;;14.67;45.09;98884.09;5085711;28;20086;-74
2022/05/29 00:15:40;;;;;;;3.83;1.83;;;;;;;14.59;44.99;98878.50;5085211;28;20052;-73
2022/05/29 00:18:08;;;;;;;3.13;1.88;;;;;;;14.55;45.33;98884.16;5085240;28;20111;-74
2022/05/29 00:20:36;;;;;;;2.85;1.70;;;;;;;14.50;45.28;98875.69;5085206;28;20118;-74
2022/05/29 00:23:04;;;;;;;2.65;1.77;;;;;;;14.49;45.44;98879.31;5085485;28;20060;-74
2022/05/29 00:25:32;;;;;;;4.00;2.53;;;;;;;13.32;45.47;98711.66;5085532;28;20118;-74
2022/05/29 00:27:59;;;;;;;4.82;2.00;;;;;;;13.68;45.45;98776.41;5085481;28;20056;-74
2022/05/29 00:30:28;;;;;;;3.22;2.20;;;;;;;14.32;45.45;98869.97;5085463;28;20239;-74
2022/05/29 00:32:55;;;;;;;5.65;2.25;;;;;;;14.32;45.71;98867.31;5084985;28;20060;-74
2022/05/29 00:35:23;;;;;;;6.10;3.75;;;;;;;14.33;45.46;98874.34;5085056;28;20102;-74
2022/05/29 00:37:50;;;;;;;6.45;4.57;;;;;;;14.36;45.53;98869.63;5084982;28;20052;-74
2022/05/29 00:40:29;;;;;;;7.05;5.30;;;;;;;14.09;46.05;98845.97;5085339;28;20056;-74
2022/05/29 00:42:56;;;;;;;6.35;4.18;;;;;;;14.34;45.79;98874.22;5085161;28;20231;-73
2022/05/29 00:45:25;;;;;;;12.10;9.75;;;;;;;14.41;45.81;98861.25;5085227;28;20060;-73
2022/05/29 00:47:54;;;;;;;15.60;9.13;;;;;;;14.49;45.79;98860.66;5085209;28;20056;-73
2022/05/29 00:50:23;;;;;;;13.52;7.82;;;;;;;14.23;45.91;98830.72;5085031;28;20125;-73
2022/05/29 00:52:52;;;;;;;6.03;3.35;;;;;;;13.19;46.15;98686.97;5085335;28;20052;-74
2022/05/29 00:55:24;;;;;;;4.47;2.67;;;;;;;14.29;46.43;98865.72;5085215;28;20059;-73
2022/05/29 00:57:54;;;;;;;3.97;2.22;;;;;;;14.24;46.47;98867.91;5085110;28;20313;-73
2022/05/29 01:00:26;;;;;;;4.72;2.25;;;;;;;14.25;46.37;98872.28;5085101;28;20252;-74
2022/05/29 01:02:56;;;;;;;3.70;2.22;;;;;;;14.28;47.20;98872.03;5085052;28;20358;-74
2022/05/29 01:05:26;;;;;;;3.88;2.10;;;;;;;14.24;47.77;98867.06;5085347;28;20121;-73
2022/05/29 01:07:57;;;;;;;4.38;2.53;;;;;;;14.25;47.85;98874.94;5085098;28;20049;-74
2022/05/29 01:10:32;;;;;;;3.17;2.05;;;;;;;13.91;49.10;98819.91;5085095;28;20056;-74
2022/05/29 01:13:11;;;;;;;3.97;2.58;;;;;;;14.12;49.71;98869.72;5085077;28;20118;-73
2022/05/29 01:15:45;;;;;;;3.65;1.80;;;;;;;14.12;49.53;98867.03;5085133;28;20313;-74
2022/05/29 01:18:26;;;;;;;4.73;2.03;;;;;;;14.13;49.97;98859.91;5084970;28;20053;-74
2022/05/29 01:21:10;;;;;;;4.32;2.50;;;;;;;14.08;50.46;98865.59;5084018;28;20267;-74
2022/05/29 01:24:26;;;;;;;4.30;2.25;;;;;;;14.08;49.91;98848.75;5084767;28;20056;-74
2022/05/29 01:27:25;;;;;;;3.17;1.98;;;;;;;14.04;50.34;98849.94;5080368;28;20110;-74
2022/05/29 01:30:04;;;;;;;3.58;1.95;;;;;;;13.98;50.03;98850.44;5073549;28;20308;-74
2022/05/29 01:32:40;;;;;;;2.45;1.55;;;;;;;13.78;49.82;98850.13;5088319;28;20114;-74
2022/05/29 01:35:13;;;;;;;3.17;1.80;;;;;;;13.70;48.80;98844.53;5088649;28;20060;-74
2022/05/29 01:37:49;;;;;;;2.70;1.40;;;;;;;13.79;48.48;98837.66;5088678;28;20316;-73
2022/05/29 01:40:27;;;;;;;4.97;2.00;;;;;;;13.73;48.51;98841.66;5088587;28;20060;-74
2022/05/29 01:42:59;;;;;;;2.42;1.63;;;;;;;13.45;48.58;98797.63;5087703;28;20052;-73
2022/05/29 01:45:53;;;;;;;3.65;1.58;;;;;;;13.59;48.70;98836.53;5088646;28;20056;-74
2022/05/29 01:48:35;;;;;;;3.33;1.73;;;;;;;13.25;48.64;98782.28;5088339;28;20102;-73
2022/05/29 01:51:07;;;;;;;2.88;1.42;;;;;;;13.44;48.80;98835.88;5088460;28;20114;-74
2022/05/29 01:53:38;;;;;;;5.70;1.75;;;;;;;13.42;48.83;98834.28;5088356;28;20058;-73
2022/05/29 01:56:13;;;;;;;3.20;1.77;;;;;;;13.39;48.96;98822.03;5088207;28;20086;-73
2022/05/29 01:58:45;;;;;;;4.35;2.00;;;;;;;13.43;48.92;98818.19;5088198;28;20056;-74
2022/05/29 02:01:16;;;;;;;2.25;1.33;;;;;;;13.46;48.69;98823.28;5087916;28;20111;-73
2022/05/29 02:03:48;;;;;;;4.43;1.75;;;;;;;13.41;48.96;98813.91;5088026;28;20378;-73
2022/05/29 02:06:22;;;;;;;2.85;1.67;;;;;;;13.23;49.09;98784.22;5087992;28;20102;-74
2022/05/29 02:08:54;;;;;;;3.33;1.50;;;;;;;12.84;49.23;98724.19;5088009;28;20105;-74
2022/05/29 02:11:24;;;;;;;2.90;1.80;;;;;;;13.00;49.38;98761.13;5087997;28;20117;-74
2022/05/29 02:13:55;;;;;;;4.05;1.50;;;;;;;13.29;48.94;98802.38;5087851;28;20098;-73
2022/05/29 02:16:29;;;;;;;3.03;1.95;;;;;;;13.28;49.58;98803.34;5087495;28;20082;-73
2022/05/29 02:19:03;;;;;;;4.68;2.13;;;;;;;13.22;49.70;98801.16;5087568;28;20255;-74
2022/05/29 02:21:34;;;;;;;2.63;1.67;;;;;;;13.20;50.47;98804.88;5087997;28;20066;-74
2022/05/29 02:24:07;;;;;;;3.25;1.70;;;;;;;13.22;51.24;98797.63;5087746;28;20052;-74
2022/05/29 02:26:37;;;;;;;2.72;1.60;;;;;;;13.24;50.96;98801.03;5087643;28;20044;-74
2022/05/29 02:29:08;;;;;;;3.72;1.75;;;;;;;13.20;51.06;98791.56;5087649;28;20113;-74
2022/05/29 02:32:00;;;;;;;3.20;1.90;;;;;;;13.18;52.68;98804.16;5087295;28;20064;-74
2022/05/29 02:34:33;;;;;;;5.88;1.90;;;;;;;13.11;51.77;98801.09;5086335;28;20056;-74
2022/05/29 02:37:07;;;;;;;2.78;1.60;;;;;;;12.82;52.63;98753.56;5087296;28;20198;-73
2022/05/29 02:39:48;;;;;;;3.53;1.60;;;;;;;13.08;52.91;98807.50;5087109;28;20064;-73
2022/05/29 02:42:22;;;;;;;3.42;2.13;;;;;;;13.02;52.42;98797.31;5087130;28;20053;-71
2022/05/29 02:45:00;;;;;;;2.80;1.40;;;;;;;13.01;53.02;98808.91;5087193;28;20114;-71
2022/05/29 02:47:38;;;;;;;2.63;1.73;;;;;;;12.86;53.33;98801.19;5086612;28;20097;-74
2022/05/29 02:50:17;;;;;;;4.60;2.00;;;;;;;12.78;53.35;98802.63;5087114;28;20370;-74
2022/05/29 02:52:44;;;;;;;3.42;1.80;;;;;;;12.78;52.43;98796.44;5086963;28;20057;-74
2022/05/29 02:55:12;;;;;;;3.33;1.48;;;;;;;12.78;52.18;98804.41;5086989;28;20223;-73
2022/05/29 02:57:41;;;;;;;3.15;1.80;;;;;;;12.86;51.96;98793.22;5086898;28;20118;-73
2022/05/29 03:00:12;;;;;;;2.70;1.80;;;;;;;12.82;52.25;98798.78;5085903;28;20056;-74
2022/05/29 03:02:51;;;;;;;3.65;2.17;;;;;;;12.53;53.35;98749.53;5086801;28;20057;-74
2022/05/29 03:05:25;;;;;;;4.78;1.80;;;;;;;12.72;53.54;98788.91;5086825;28;20064;-74
2022/05/29 03:08:03;;;;;;;4.07;1.40;;;;;;;11.18;53.91;98563.56;5085433;28;20106;-73
2022/05/29 03:10:34;;;;;;;2.75;1.75;;;;;;;12.69;52.73;98795.31;5086621;28;20056;-74
2022/05/29 03:13:08;;;;;;;2.65;1.50;;;;;;;12.70;53.00;98797.00;5086629;28;20056;-74
2022/05/29 03:15:49;;;;;;;2.90;1.60;;;;;;;12.57;54.15;98798.00;5086872;28;20098;-73
2022/05/29 03:18:34;;;;;;;3.92;1.83;;;;;;;12.46;54.66;98798.78;5086464;28;20762;-74
2022/05/29 03:21:08;;;;;;;3.72;2.05;;;;;;;12.42;54.04;98784.00;5086513;28;20056;-74
2022/05/29 03:23:42;;;;;;;2.20;1.50;;;;;;;12.40;54.27;98789.44;5086539;28;20113;-73
2022/05/29 03:26:18;;;;;;;3.25;1.80;;;;;;;12.07;54.29;98709.44;5086555;28;20114;-74
2022/05/29 03:28:51;;;;;;;3.47;2.15;;;;;;;12.25;53.71;98766.59;5086389;28;20055;-72
2022/05/29 03:31:25;;;;;;;3.08;1.98;;;;;;;12.46;54.58;98796.13;5085681;28;20052;-72
2022/05/29 03:33:54;;;;;;;3.15;1.75;;;;;;;12.43;54.42;98797.19;5085919;28;20106;-72
2022/05/29 03:36:23;;;;;;;3.72;2.17;;;;;;;12.40;54.02;98800.06;5086085;28;20053;-72
2022/05/29 03:38:50;;;;;;;3.55;2.08;;;;;;;12.46;53.95;98801.44;5086089;28;20250;-72
2022/05/29 03:41:24;;;;;;;2.63;1.73;;;;;;;11.66;55.25;98670.72;5086078;28;20056;-72
2022/05/29 03:43:52;;;;;;;4.10;1.90;;;;;;;12.14;54.29;98746.09;5086177;28;20106;-72
2022/05/29 03:46:19;;;;;;;3.70;1.88;;;;;;;12.42;54.20;98795.47;5085687;28;20056;-72
2022/05/29 03:48:46;;;;;;;2.85;1.67;;;;;;;12.35;54.13;98788.06;5085851;28;20094;-72
2022/05/29 03:51:15;;;;;;;3.15;1.60;;;;;;;12.43;54.41;98821.09;5085972;28;20102;-72
2022/05/29 03:53:42;;;;;;;3.38;1.95;;;;;;;11.48;53.97;98656.94;5085182;28;20079;-72
2022/05/29 03:56:09;;;;;;;5.70;2.30;;;;;;;12.53;53.63;98794.72;5085752;28;20259;-72
2022/05/29 03:58:37;;;;;;;3.50;2.00;;;;;;;12.59;53.18;98788.09;5084543;28;20056;-72
2022/05/29 04:01:04;;;;;;;3.33;1.88;;;;;;;12.60;52.89;98792.47;5085819;28;20334;-72
2022/05/29 04:03:31;;;;;;;3.90;1.98;;;;;;;12.58;53.01;98797.88;5085357;28;20056;-73
2022/05/29 04:05:59;;;;;;;2.70;1.83;;;;;;;12.39;52.54;98757.66;5085510;28;20082;-73
2022/05/29 04:13:58;;;;;;;2.60;1.70;;;;;;;12.75;52.25;98801.97;5085561;28;20049;-73
2022/05/29 04:16:26;;;;;;;3.45;2.00;;;;;;;12.79;52.37;98803.47;5085676;28;20106;-73
2022/05/29 04:18:53;;;;;;;3.83;2.03;;;;;;;12.45;52.50;98735.94;5085399;28;20056;-72
2022/05/29 04:21:20;;;;;;;4.03;1.98;;;;;;;12.86;52.30;98794.06;5085551;28;20132;-73
2022/05/29 04:23:49;;;;;;;3.33;1.70;;;;;;;12.61;51.33;98755.13;5085443;28;20301;-73
2022/05/29 04:26:17;;;;;;;4.95;1.80;;;;;;;12.88;51.24;98797.47;5085710;28;20285;-72
2022/05/29 04:28:45;;;;;;;3.20;1.58;;;;;;;12.91;51.08;98802.56;5085472;28;20231;-72
2022/05/29 04:31:12;;;;;;;2.85;1.70;;;;;;;12.94;50.95;98801.50;5085237;28;20312;-72
2022/05/29 04:33:40;;;;;;;3.67;2.10;;;;;;;13.00;50.19;98798.38;5085454;28;20098;-72
2022/05/29 04:36:08;;;;;;;3.72;2.95;;;;;;;13.04;50.15;98798.03;5085313;28;20052;-73
2022/05/29 04:38:35;;;;;;;3.67;2.15;;;;;;;12.98;50.24;98798.50;5085054;28;20125;-73
2022/05/29 04:41:08;;;;;;;5.78;2.33;;;;;;;13.01;50.42;98795.59;5085362;28;20052;-73
2022/05/29 04:43:36;;;;;;;3.85;2.20;;;;;;;12.99;50.55;98802.00;5085363;28;20090;-73
2022/05/29 04:46:04;;;;;;;4.75;2.03;;;;;;;12.97;50.78;98793.28;5085254;28;20044;-72
2022/05/29 04:48:32;;;;;;;2.75;1.95;;;;;;;12.61;50.70;98747.16;5085288;28;20121;-72
2022/05/29 04:51:00;;;;;;;2.40;1.35;;;;;;;12.92;50.96;98792.78;5084325;28;20321;-73
2022/05/29 04:53:29;;;;;;;3.92;1.70;;;;;;;12.40;50.88;98712.38;5085202;28;20057;-72
2022/05/29 04:55:58;;;;;;;4.90;2.03;;;;;;;13.03;50.48;98782.19;5085163;28;20122;-73
2022/05/29 04:58:31;;;;;;;3.83;2.08;;;;;;;13.12;50.16;98784.16;5085054;28;20374;-73
2022/05/29 05:00:59;;;;;;;5.82;2.75;;;;;;;12.90;49.31;98731.72;5085101;28;20086;-73
2022/05/29 05:03:27;;;;;;;3.67;2.47;;;;;;;12.94;49.29;98735.84;5084751;28;20198;-73
2022/05/29 05:05:55;;;;;;;3.00;1.65;;;;;;;13.16;49.28;98778.50;5087638;28;20052;-73
2022/05/29 05:08:22;;;;;;;5.50;2.22;;;;;;;13.14;49.12;98796.41;5089161;28;20060;-73
2022/05/29 05:10:50;;;;;;;3.50;2.20;;;;;;;13.13;48.82;98781.38;5088914;28;20251;-73
2022/05/29 05:13:17;;;;;;;3.38;2.10;;;;;;;12.92;48.75;98735.13;5088940;28;20056;-73
2022/05/29 05:15:46;;;;;;;8.73;2.50;;;;;;;12.96;48.80;98730.41;5088951;28;20262;-73
2022/05/29 05:18:13;;;;;;;3.97;2.22;;;;;;;13.22;48.62;98771.88;5088696;28;20056;-73
2022/05/29 05:20:41;;;;;;;3.83;2.08;;;;;;;13.21;49.08;98770.19;5088741;28;20057;-73
2022/05/29 05:23:08;;;;;;;3.72;2.08;;;;;;;13.24;48.55;98777.06;5088311;28;20056;-73
2022/05/29 05:25:37;;;;;;;3.35;2.30;;;;;;;13.15;48.23;98781.28;5088650;28;20105;-73
2022/05/29 05:28:04;;;;;;;5.03;2.22;;;;;;;13.06;48.09;98769.50;5088642;28;20052;-72
2022/05/29 05:30:32;;;;;;;3.90;1.75;;;;;;;12.97;48.44;98764.88;5088663;28;20057;-73
2022/05/29 05:33:01;;;;;;;3.40;2.55;;;;;;;12.70;48.27;98724.38;5088118;28;20316;-73
2022/05/29 05:35:29;;;;;;;4.97;2.35;;;;;;;12.91;48.07;98775.97;5088738;28;20247;-73
2022/05/29 05:37:56;;;;;;;3.70;1.92;;;;;;;12.83;48.33;98765.03;5088082;28;20067;-73
2022/05/29 05:40:24;;;;;;;3.10;1.73;;;;;;;12.91;48.26;98757.34;5088397;28;20098;-73
2022/05/29 05:42:51;;;;;;;5.72;2.40;;;;;;;12.97;48.18;98761.38;5088324;28;20056;-73
2022/05/29 05:45:18;;;;;;;3.88;1.80;;;;;;;13.07;47.89;98760.56;5088353;28;20262;-73
2022/05/29 05:47:45;;;;;;;4.20;2.00;;;;;;;13.15;47.80;98760.84;5087935;28;20052;-73
2022/05/29 05:50:15;;;;;;;3.63;2.00;;;;;;;13.20;47.83;98754.31;5087895;28;20102;-73
2022/05/29 05:52:42;;;;;;;3.28;1.90;;;;;;;13.27;47.28;98750.25;5087892;28;20102;-73
2022/05/29 05:55:12;;;;;;;2.72;1.70;;;;;;;12.34;47.26;98600.38;5087855;28;20102;-73
2022/05/29 05:57:40;;;;;;;3.40;1.83;;;;;;;13.28;47.09;98747.47;5087778;28;20082;-73
2022/05/29 06:00:10;;;;;;;6.57;2.22;;;;;;;13.25;47.02;98747.69;5087643;28;20109;-73
2022/05/29 06:02:40;;;;;;;3.65;1.75;;;;;;;13.20;47.08;98752.50;5088003;28;20113;-73
2022/05/29 06:05:08;;;;;;;4.82;1.90;;;;;;;13.29;46.80;98735.84;5087650;28;20060;-73
2022/05/29 06:07:36;;;;;;;3.95;1.85;;;;;;;13.33;46.43;98739.13;5087890;28;20060;-73
2022/05/29 06:10:04;;;;;;;4.05;1.50;;;;;;;13.41;46.72;98739.38;5087944;28;20056;-73
2022/05/29 06:12:31;;;;;;;4.05;1.70;;;;;;;13.49;46.92;98734.34;5087935;28;20106;-73
2022/05/29 06:14:59;;;;;;;3.45;1.77;;;;;;;13.55;46.88;98741.03;5087572;28;20082;-73
2022/05/29 06:17:28;;;;;;;2.97;1.80;;;;;;;13.64;46.88;98725.19;5087277;28;20119;-73
2022/05/29 06:19:55;;;;;;;3.10;2.00;;;;;;;13.50;46.93;98684.63;5087462;28;20052;-73
2022/05/29 06:22:22;;;;;;;5.28;2.00;;;;;;;13.87;47.02;98723.41;5086557;28;20312;-73
2022/05/29 06:24:50;;;;;;;3.63;1.73;;;;;;;14.00;46.54;98723.28;5087705;28;20064;-73
2022/05/29 06:27:18;;;;;;;2.80;1.50;;;;;;;14.07;46.23;98725.34;5087322;28;20324;-73
2022/05/29 06:29:45;;;;;;;4.65;2.63;;;;;;;14.17;46.19;98725.44;5087731;28;20060;-73
2022/05/29 06:32:15;;;;;;;3.35;2.05;;;;;;;14.20;45.77;98719.88;5087401;28;20056;-73
2022/05/29 06:34:43;;;;;;;3.42;2.10;;;;;;;14.30;45.98;98718.16;5087664;28;20055;-73
2022/05/29 06:37:10;;;;;;;3.53;1.98;;;;;;;14.38;45.61;98713.06;5087083;28;20106;-73
2022/05/29 06:39:38;;;;;;;3.85;1.80;;;;;;;14.51;45.62;98707.59;5087190;28;20106;-73
2022/05/29 06:42:07;;;;;;;3.58;1.98;;;;;;;14.53;45.27;98710.97;5087372;28;20071;-73
2022/05/29 06:44:36;;;;;;;3.25;2.00;;;;;;;14.02;45.04;98610.28;5086827;28;20060;-73
2022/05/29 06:47:07;;;;;;;2.70;1.45;;;;;;;14.57;45.35;98682.22;5087199;28;20059;-73
2022/05/29 06:49:34;;;;;;;3.50;1.95;;;;;;;14.71;45.19;98700.69;5087784;28;20082;-73
2022/05/29 06:52:01;;;;;;;5.03;2.55;;;;;;;14.71;44.28;98692.69;5087255;28;20056;-73
2022/05/29 06:54:28;;;;;;;3.92;2.30;;;;;;;13.03;44.79;98420.44;5086920;28;20062;-73
2022/05/29 06:56:56;;;;;;;3.33;1.95;;;;;;;14.63;44.76;98693.31;5085846;28;20102;-73
2022/05/29 06:59:24;;;;;;;4.20;1.88;;;;;;;14.36;44.37;98637.69;5086426;28;20102;-73
2022/05/29 07:07:24;;;;;;;4.05;2.53;;;;;;;14.72;44.71;98689.03;5086966;28;20053;-73
2022/05/29 07:09:51;;;;;;;4.88;2.67;;;;;;;14.03;44.78;98555.19;5086433;28;20248;-73
2022/05/29 07:12:21;;;;;;;3.42;2.05;;;;;;;14.87;45.26;98678.91;5086834;28;20048;-73
2022/05/29 07:14:53;;;;;;;5.38;2.08;;;;;;;14.96;44.95;98676.31;5086452;28;20064;-73
2022/05/29 07:17:22;;;;;;;4.50;2.15;;;;;;;15.05;44.89;98686.22;5086580;28;20053;-73
2022/05/29 07:19:50;;;;;;;3.38;1.95;;;;;;;15.02;45.04;98666.97;5086609;28;20366;-73
2022/05/29 07:22:17;;;;;;;3.17;1.80;;;;;;;14.83;45.34;98638.31;5086151;28;20056;-73
2022/05/29 07:24:44;;;;;;;3.92;1.90;;;;;;;15.12;45.09;98681.22;5086213;28;20056;-73
2022/05/29 07:27:12;;;;;;;3.65;2.20;;;;;;;15.14;44.81;98683.75;5085744;28;20304;-73
2022/05/29 07:29:40;;;;;;;3.53;2.38;;;;;;;15.20;44.64;98691.25;5086069;28;20060;-73
2022/05/29 07:32:11;;;;;;;5.18;2.30;;;;;;;14.87;44.54;98645.06;5086383;28;20091;-73
2022/05/29 07:34:38;;;;;;;4.35;1.90;;;;;;;14.94;45.12;98648.06;5086126;28;20118;-73
2022/05/29 07:37:08;;;;;;;3.90;2.13;;;;;;;15.22;44.88;98687.47;5085901;28;20063;-73
2022/05/29 07:39:37;;;;;;;2.92;1.83;;;;;;;15.36;45.03;98684.47;5086191;28;20098;-73
2022/05/29 07:44:50;;;;;;;3.90;2.40;;;;;;;15.48;44.36;98689.75;5086287;28;20044;-73
2022/05/29 07:47:19;;;;;;;4.53;3.00;;;;;;;15.31;43.40;98667.16;5085591;28;20126;-73
2022/05/29 07:49:47;;;;;;;5.57;3.47;;;;;;;15.49;43.51;98704.78;5086250;28;20121;-73
2022/05/29 07:52:14;;;;;;;3.55;2.13;;;;;;;15.45;42.91;98693.53;5085817;28;20048;-73
2022/05/29 07:54:41;;;;;;;3.05;1.70;;;;;;;15.50;43.45;98687.78;5085538;28;20109;-73
2022/05/29 07:57:09;;;;;;;4.95;2.30;;;;;;;15.58;42.58;98679.97;5085643;28;20118;-73
2022/05/29 07:59:36;;;;;;;3.47;1.88;;;;;;;15.56;42.59;98693.44;5085720;28;20102;-73
2022/05/29 08:02:03;;;;;;;5.05;2.28;;;;;;;15.59;42.21;98684.31;5086007;28;20052;-73
2022/05/29 08:04:32;;;;;;;3.53;1.77;;;;;;;15.73;42.79;98686.69;5085659;28;20052;-73
2022/05/29 08:06:59;;;;;;;7.03;1.85;;;;;;;15.80;42.17;98682.50;5085652;28;20064;-73
2022/05/29 08:09:27;;;;;;;3.67;1.77;;;;;;;15.79;40.57;98690.66;5085628;28;20056;-73
2022/05/29 08:11:54;;;;;;;2.78;1.77;;;;;;;15.73;41.01;98680.50;5085543;28;20056;-73
2022/05/29 08:14:21;;;;;;;4.53;1.70;;;;;;;15.65;39.24;98674.00;5085666;28;20305;-73
2022/05/29 08:16:49;;;;;;;4.75;1.80;;;;;;;15.66;40.30;98673.00;5085583;28;20067;-73
2022/05/29 08:19:16;;;;;;;2.58;1.67;;;;;;;15.71;40.63;98672.63;5085124;28;20056;-73
2022/05/29 08:21:45;;;;;;;4.60;1.60;;;;;;;15.57;38.71;98676.44;5085494;28;20079;-73
2022/05/29 08:32:23;;;;;;;;;;;;;;;15.27;38.62;98679.06;5085592;28;20122;-73
2022/05/29 08:34:50;;;;;;;1.83;1.20;;;;;;;15.35;40.29;98705.97;5085241;28;19917;-73
2022/05/29 08:37:19;;;;;;;3.42;1.85;;;;;;;15.35;39.78;98663.25;5085495;28;20052;-73
2022/05/29 08:39:46;;;;;;;4.28;2.30;;;;;;;14.43;40.15;98502.94;5087323;28;20098;-73
2022/05/29 08:42:17;;;;;;;2.97;1.60;;;;;;;15.41;40.09;98665.38;5089404;28;20053;-73
2022/05/29 08:44:47;;;;;;;3.28;2.05;;;;;;;15.45;39.85;98663.31;5089481;28;20114;-73
2022/05/29 08:47:15;;;;;;;2.28;1.50;;;;;;;14.43;40.16;98513.59;5089286;28;20060;-73
2022/05/29 08:49:45;;;;;;;4.53;1.73;;;;;;;15.41;40.11;98668.06;5089246;28;20118;-73
2022/05/29 08:52:28;;;;;;;3.30;1.80;;;;;;;15.47;39.61;98643.50;5088987;28;20065;-73
2022/05/29 08:55:03;;;;;;;3.67;1.80;;;;;;;15.53;39.40;98644.78;5089447;28;20040;-73
2022/05/29 08:57:38;;;;;;;;;;;;;;;15.54;38.69;98641.16;5089554;28;20235;-73
2022/05/29 09:00:10;;;;;;;3.33;1.50;;;;;;;15.63;40.10;98641.19;5088745;28;19920;-73
2022/05/29 09:02:58;;;;;;;3.75;1.80;;;;;;;15.70;38.47;98639.72;5088952;28;20361;-73
2022/05/29 09:05:36;;;;;;;2.55;1.40;;;;;;;15.42;38.30;98597.66;5088858;28;20083;-73
2022/05/29 09:08:10;;;;;;;2.53;1.40;;;;;;;15.70;39.33;98645.06;5088804;28;20064;-73
2022/05/29 09:10:40;;;;;;;3.08;1.83;;;;;;;15.69;38.17;98647.84;5089038;28;20061;-73
2022/05/29 09:13:16;;;;;;;21.95;2.75;;;;;;;15.60;37.82;98654.81;5088887;28;20064;-73
2022/05/29 09:15:46;;;;;;;2.67;1.50;;;;;;;15.59;39.10;98634.44;5088611;28;20052;-73
2022/05/29 09:18:21;;;;;;;2.67;1.55;;;;;;;15.61;38.96;98642.31;5088609;28;20064;-73
2022/05/29 09:20:52;;;;;;;2.92;1.58;;;;;;;15.64;38.69;98645.56;5088437;28;20117;-73
2022/05/29 09:23:27;;;;;;;2.88;1.38;;;;;;;15.66;38.43;98640.13;5088264;28;20052;-73
2022/05/29 09:25:55;;;;;;;4.47;2.15;;;;;;;15.72;39.41;98647.59;5088508;28;20362;-73
2022/05/29 09:28:33;;;;;;;3.03;2.13;;;;;;;15.68;38.34;98644.34;5088597;28;20064;-73
2022/05/29 09:31:07;;;;;;;4.03;1.65;;;;;;;15.66;38.18;98648.97;5088817;28;20060;-73
2022/05/29 09:33:36;;;;;;;3.05;2.00;;;;;;;15.63;38.89;98651.88;5087325;28;20090;-73
2022/05/29 09:36:13;;;;;;;5.22;2.38;;;;;;;14.78;38.50;98573.00;5088341;28;20170;-73
2022/05/29 09:38:47;;;;;;;2.65;1.70;;;;;;;15.45;38.85;98650.81;5088346;28;20162;-73
2022/05/29 09:41:20;;;;;;;2.33;1.30;;;;;;;15.50;39.40;98651.25;5087960;28;20098;-73
2022/05/29 09:44:09;;;;;;;11.15;2.80;;;;;;;15.57;38.62;98638.22;5088233;28;20480;-73
2022/05/29 09:46:38;;;;;;;3.53;1.75;;;;;;;15.63;40.19;98640.34;5088086;28;20260;-73
2022/05/29 09:52:01;;;;;;;2.92;1.90;;;;;;;15.67;39.37;98649.81;5087305;28;20044;-73
2022/05/29 09:54:38;;;;;;;5.55;1.83;;;;;;;15.62;38.60;98642.16;5088069;28;20113;-73
2022/05/29 09:57:11;;;;;;;2.80;1.50;;;;;;;15.51;38.58;98636.91;5086935;28;20052;-73
2022/05/29 09:59:42;;;;;;;4.30;1.55;;;;;;;15.55;39.18;98629.47;5087914;28;20052;-72
2022/05/29 10:02:27;;;;;;;3.25;1.40;;;;;;;15.59;38.21;98631.75;5087882;28;20266;-73
2022/05/29 10:04:57;;;;;;;;;;;;;;;15.52;38.27;98629.75;5088345;28;20064;-73
2022/05/29 10:07:34;;;;;;;2.97;1.70;;;;;;;14.65;38.64;98479.84;5087961;28;19927;-73
2022/05/29 10:10:06;;;;;;;3.65;1.75;;;;;;;15.57;38.54;98649.75;5087743;28;20197;-73
2022/05/29 10:12:42;;;;;;;3.17;2.22;;;;;;;15.55;38.74;98634.81;5087781;28;20059;-73
2022/05/29 10:15:35;;;;;;;2.75;1.60;;;;;;;15.59;38.64;98628.25;5087292;28;20068;-73
2022/05/29 10:18:09;;;;;;;7.70;2.38;;;;;;;15.60;39.36;98625.44;5087814;28;20056;-72
2022/05/29 10:20:39;;;;;;;3.53;1.90;;;;;;;15.07;38.91;98531.31;5087508;28;20056;-73
2022/05/29 10:23:09;;;;;;;3.33;1.80;;;;;;;15.30;39.48;98585.38;5087277;28;20052;-73
2022/05/29 10:25:41;;;;;;;3.55;2.10;;;;;;;15.62;39.36;98622.63;5087431;28;20056;-73
2022/05/29 10:28:15;;;;;;;3.15;1.58;;;;;;;15.69;38.98;98627.34;5087440;28;20209;-73
2022/05/29 10:30:48;;;;;;;6.22;2.88;;;;;;;15.69;38.94;98637.16;5087087;28;20078;-73
2022/05/29 10:33:22;;;;;;;4.15;2.40;;;;;;;15.68;38.64;98625.66;5086982;28;20067;-73
2022/05/29 10:35:51;;;;;;;4.35;2.25;;;;;;;15.69;39.92;98630.00;5087203;28;20056;-73
2022/05/29 10:38:29;;;;;;;2.80;1.60;;;;;;;15.69;39.65;98626.47;5087240;28;20053;-73
2022/05/29 10:41:00;;;;;;;4.03;1.52;;;;;;;15.64;39.96;98629.53;5087078;28;20056;-73
2022/05/29 10:43:37;;;;;;;3.70;1.73;;;;;;;15.46;40.71;98585.72;5087212;28;20056;-73
2022/05/29 10:46:07;;;;;;;2.80;1.75;;;;;;;15.77;40.53;98624.00;5087256;28;20052;-73
2022/05/29 10:48:54;;;;;;;3.10;1.58;;;;;;;15.51;39.31;98582.66;5086880;28;20299;-73
2022/05/29 10:51:28;;;;;;;3.20;1.58;;;;;;;15.72;39.82;98623.53;5086889;28;20060;-74
2022/05/29 10:54:13;;;;;;;3.28;1.60;;;;;;;15.46;39.20;98593.75;5087106;28;20069;-73
2022/05/29 10:56:56;;;;;;;2.72;2.00;;;;;;;15.83;39.15;98622.59;5087042;28;20049;-73
2022/05/29 10:59:44;;;;;;;2.72;1.27;;;;;;;15.84;38.31;98629.63;5086901;28;20056;-73
2022/05/29 11:05:32;;;;;;;4.25;2.25;;;;;;;15.55;38.10;98578.75;5086772;28;20040;-73
2022/05/29 11:08:20;;;;;;;3.67;1.98;;;;;;;15.87;37.98;98632.03;5086776;28;20053;-73
2022/05/29 11:11:01;;;;;;;4.63;1.83;;;;;;;15.76;37.44;98619.63;5086483;28;20063;-73
2022/05/29 11:13:55;;;;;;;2.53;1.73;;;;;;;15.76;37.31;98614.28;5086795;28;20056;-73
2022/05/29 11:16:34;;;;;;;2.95;1.60;;;;;;;15.75;37.66;98619.75;5086493;28;20313;-73
2022/05/29 11:19:22;;;;;;;6.82;2.25;;;;;;;15.81;37.59;98617.41;5086782;28;20056;-73
2022/05/29 11:22:08;;;;;;;5.47;2.55;;;;;;;15.89;38.35;98622.06;5086743;28;20040;-73
2022/05/29 11:24:49;;;;;;;4.03;1.95;;;;;;;14.78;37.90;98416.47;5085497;28;20056;-73
2022/05/29 11:27:41;;;;;;;2.42;1.52;;;;;;;16.05;37.04;98606.34;5086212;28;20053;-73
2022/05/29 11:30:14;;;;;;;3.03;1.15;;;;;;;16.04;37.41;98608.19;5086360;28;20056;-73
2022/05/29 11:33:02;;;;;;;2.95;1.45;;;;;;;16.05;36.77;98606.34;5085829;28;20313;-73
2022/05/29 11:35:47;;;;;;;2.83;1.50;;;;;;;15.76;37.31;98542.16;5085902;28;20052;-74
2022/05/29 11:38:32;;;;;;;2.50;1.42;;;;;;;15.89;37.52;98557.94;5086071;28;20208;-73
2022/05/29 11:41:05;;;;;;;2.40;1.42;;;;;;;16.20;37.58;98594.28;5086008;28;20059;-73
2022/05/29 11:43:41;;;;;;;2.50;1.47;;;;;;;16.19;37.60;98591.75;5084769;28;20048;-73
2022/05/29 11:51:55;;;;;;;3.58;1.80;;;;;;;16.11;37.39;98621.84;5085726;28;20044;-74
2022/05/29 11:54:28;;;;;;;2.22;1.42;;;;;;;16.03;38.16;98594.97;5086060;28;20036;-74
2022/05/29 11:57:01;;;;;;;3.40;1.60;;;;;;;15.98;38.22;98583.84;5086162;28;20056;-73
2022/05/29 11:59:48;;;;;;;2.50;1.70;;;;;;;16.06;37.85;98580.47;5085760;28;20323;-73
2022/05/29 12:02:27;;;;;;;2.90;1.70;;;;;;;16.16;37.88;98581.34;5085543;28;20057;-73
2022/05/29 12:05:01;;;;;;;2.25;1.48;;;;;;;15.84;38.27;98538.78;5085394;28;20052;-74
2022/05/29 12:07:38;;;;;;;3.58;1.52;;;;;;;15.92;38.16;98531.78;5085720;28;20056;-73
2022/05/29 12:10:11;;;;;;;3.22;1.75;;;;;;;16.20;38.48;98564.88;5085373;28;20228;-73
2022/05/29 12:12:44;;;;;;;4.63;2.10;;;;;;;16.23;38.43;98571.78;5085714;28;20060;-74
2022/05/29 12:15:16;;;;;;;3.75;1.77;;;;;;;15.17;37.72;98409.44;5084822;28;20052;-73
2022/05/29 12:17:49;;;;;;;4.43;1.60;;;;;;;16.04;37.78;98568.09;5085324;28;20059;-73
2022/05/29 12:20:23;;;;;;;2.75;1.73;;;;;;;15.92;37.99;98565.66;5085573;28;20056;-73
2022/05/29 12:22:56;;;;;;;2.35;1.40;;;;;;;15.87;38.17;98560.75;5085478;28;20052;-74
2022/05/29 12:25:34;;;;;;;3.78;1.67;;;;;;;15.91;38.11;98564.81;5085406;28;20048;-73
2022/05/29 12:28:06;;;;;;;3.03;1.77;;;;;;;15.87;38.52;98558.06;5085513;28;20056;-72
2022/05/29 12:30:38;;;;;;;3.42;1.30;;;;;;;15.95;38.54;98554.72;5085533;28;20064;-73